Tiempo atmosférico en la estación meteorológica de El Pinar, Depósito, Santa Cruz de Tenerife (948 m.)



Fecha
DESCASC
Temp. máxima en grados centígrados (hora)
DESCASC
Temp. mínima en grados centígrados (hora)
DESCASC
Temp. media en grados centígrados
DESCASC
Racha de viento máxima en m/sg (hora)
DESCASC
Velocidad máxima media en intervalos de 10 minutos(hora)
DESCASC
Precipitaciones diarias en mm
DESCASC
Precipitaciones de 00:00 a 06:00 en mm
DESCASC
Precipitaciones de 06:00 a 12:00 en mm
DESCASC
Precipitaciones de 12:00 a 18:00 en mm
DESCASC
Precipitaciones de 18:00 a 24:00 en mm
DESCASC
06-12-2018 18.5 (16:00) 14.4 (08:00) 16.4 14.72 (04:30) 6.11 (05:40) 0 0 0 0 0
05-12-2018 17 (16:40) 11.9 (00:00) 14.4 10.28 (06:40) 4.17 (23:50) 0 0 0 0 0
04-12-2018 20.5 (14:00) 9.6 (01:00) 15.1 7.5 (10:50) 3.89 (13:50) 0 0 0 0 0
03-12-2018 21.1 (14:50) 8.4 (00:00) 14.8 6.11 (11:50) 3.33 (14:40) 0 0 0 0 0
02-12-2018 14.4 (11:50) 7.8 (00:00) 11.1 5.28 (11:10) 2.78 (10:30) 0 0 0 0 0
01-12-2018 17.4 (15:00) 7.5 (00:00) 12.4 4.72 (21:10) 2.5 (12:40) 0 0 0 0 0
30-11-2018 20 (15:00) 9.2 (00:00) 14.6 4.17 (02:50) 2.5 (07:30) 0 0 0 0 0
29-11-2018 19.9 (10:50) 9 (00:00) 14.4 5.28 (12:40) 3.06 (12:50) 0 0 0 0 0
28-11-2018 19.2 (15:10) 6.9 (00:00) 13.1 5.28 (23:59) 2.78 (12:10) 0 0 0 0 0
27-11-2018 14.7 (13:20) 10.2 (00:00) 12.4 7.78 (22:50) 2.5 (21:20) 1.6 0 0.8 0.6 0.2
25-11-2018 19 (09:50) 10.6 (00:00) 14.8 8.89 (04:10) 3.61 (04:00) 0 0 0 0 0
24-11-2018 16.8 (14:40) 6.5 (00:00) 11.6 8.06 (20:20) 3.33 (20:30) 0 0 0 0 0
23-11-2018 13.5 (14:30) 8.2 (00:00) 10.8 13.61 (01:30) 5.83 (01:30) 6.6 6 0.6 0 0
22-11-2018 13.9 (13:30) 7.5 (00:00) 10.7 13.06 (13:50) 6.11 (22:40) 23.8 0.4 11 7.4 5
21-11-2018 16.8 (13:20) 8.2 (00:00) 12.5 9.72 (11:00) 5.28 (11:00) 2.8 0 0 2.8 0
20-11-2018 15.6 (13:20) 8.4 (00:00) 12 6.67 (00:40) 2.5 (13:00) 0 0 0 0 0
19-11-2018 13.7 (14:40) 10.4 (00:00) 12 9.72 (07:00) 3.89 (14:50) 4 1.8 1.4 0 0.8
18-11-2018 14.6 (12:00) 10.1 (00:00) 12.4 11.39 (20:30) 5 (17:20) 5.2 0.2 1.6 1 2.4
17-11-2018 15.7 (10:40) 11.4 (00:00) 13.5 15 (18:40) 7.22 (18:40) 26.8 3 18.2 5.6 0
16-11-2018 15.9 (12:20) 8.6 (00:00) 12.3 8.89 (01:40) 3.06 (00:40) 0 0 0 0 0
15-11-2018 15.9 (14:50) 6.9 (00:00) 11.4 10.28 (12:20) 4.44 (17:20) 1.4 0 1 0.4 0
14-11-2018 14.8 (14:20) 8 (00:00) 11.4 8.89 (01:50) 3.06 (17:40) 2.6 1.4 0.2 0.6 0.4
13-11-2018 14.7 (15:00) 10.6 (00:00) 12.7 10.28 (01:00) 3.89 (11:50) 1.4 0.6 0 0 0.8
12-11-2018 15.1 (12:10) 11.1 (00:00) 13.1 12.22 (19:00) 5 (08:20) 7.8 4.4 3.4 0 0
11-11-2018 16.5 (15:40) 9 (00:00) 12.8 9.44 (22:00) 3.33 (12:20) 0 0 0 0 0
10-11-2018 15.5 (14:50) 9.5 (00:00) 12.5 8.61 (09:20) 3.61 (02:10) 0 0 0 0 0

Gráficas

Temp. máximas Temp. mínimas Temp. medias Precipitaciones Rachas de viento máximas Velocidades máximas media en intervalos de 10 minutos

Datos horarios

Fecha y hora oficial Temperatura (ºC) Velocidad del viento (km/h) Dirección del viento Racha (km/h) Dirección de racha Precipitación (mm) Presión (hPa) Tendencia (hPa) Humedad (%)
2018-12-09 23:00:00 16.7 7 Nordeste 18 Nordeste 0 -- -- 29
2018-12-09 22:00:00 15.9 6 Nordeste 14 Nordeste 0 -- -- 31
2018-12-09 21:00:00 14.9 5 Nordeste 15 Norte 0 -- -- 35
2018-12-09 20:00:00 14.5 5 Norte 12 Norte 0 -- -- 40
2018-12-09 19:00:00 14.8 5 Norte 9 Nordeste 0 -- -- 42
2018-12-09 18:00:00 15.5 5 Norte 9 Norte 0 -- -- 45
2018-12-09 17:00:00 17.1 3 Norte 6 Noroeste 0 -- -- 46
2018-12-09 16:00:00 18.2 5 Este 13 Este 0 -- -- 34
2018-12-09 15:00:00 19 6 Este 11 Este 0 -- -- 40
2018-12-09 14:00:00 19.5 4 Sudeste 10 Sudeste 0 -- -- 32
2018-12-09 13:00:00 20.1 5 Sur 15 Sudeste 0 -- -- 29
2018-12-09 12:00:00 19.9 5 Sudeste 10 Sudeste 0 -- -- 30
2018-12-09 11:00:00 17.7 3 Norte 7 Noroeste 0 -- -- 38
2018-12-09 10:00:00 18.3 4 Sudeste 10 Nordeste 0 -- -- 33
2018-12-09 09:00:00 12.7 4 Norte 8 Norte 0 -- -- 59
2018-12-09 08:00:00 11.1 4 Norte 9 Norte 0 -- -- 49
2018-12-09 07:00:00 10.8 6 Noroeste 9 Norte 0 -- -- 50
2018-12-09 06:00:00 10.7 5 Norte 11 Este 0 -- -- 49
2018-12-09 05:00:00 11 5 Norte 12 Nordeste 0 -- -- 46
2018-12-09 04:00:00 11.4 6 Norte 13 Nordeste 0 -- -- 44
2018-12-09 03:00:00 11.6 4 Norte 13 Nordeste 0 -- -- 43
2018-12-09 02:00:00 11.3 6 Norte 10 Norte 0 -- -- 45
2018-12-09 01:00:00 11.6 6 Norte 10 Norte 0 -- -- 45
2018-12-09 00:00:00 11.7 5 Norte 11 Nordeste 0 -- -- 44
2018-12-08 23:00:00 11.6 6 Norte 13 Norte 0 -- -- 44
2018-12-08 22:00:00 13 8 Norte 15 Nordeste 0 -- -- 40
2018-12-08 21:00:00 12.5 5 Norte 12 Norte 0 -- -- 43
2018-12-08 20:00:00 12.3 6 Norte 12 Norte 0 -- -- 45
2018-12-08 19:00:00 12.6 6 Norte 12 Norte 0 -- -- 42
2018-12-08 18:00:00 14.8 5 Norte 9 Norte 0 -- -- 45
2018-12-08 17:00:00 17.9 3 Nordeste 11 Este 0 -- -- 34
2018-12-08 16:00:00 18.8 5 Nordeste 13 Este 0 -- -- 26
2018-12-08 15:00:00 19.6 7 Este 15 Este 0 -- -- 29
2018-12-08 14:00:00 20.5 6 Sudeste 15 Sudeste 0 -- -- 29
2018-12-08 13:00:00 20 7 Este 17 Este 0 -- -- 34
2018-12-08 12:00:00 19.9 8 Este 19 Este 0 -- -- 51
2018-12-08 11:00:00 19.8 9 Este 24 Este 0 -- -- 34
2018-12-08 10:00:00 19.7 8 Este 26 Sudeste 0 -- -- 27
2018-12-08 09:00:00 18.6 8 Nordeste 19 Este 0 -- -- 27
2018-12-08 08:00:00 16.2 5 Nordeste 14 Este 0 -- -- 31
2018-12-08 07:00:00 15.6 6 Nordeste 21 Sudeste 0 -- -- 32
2018-12-08 06:00:00 16.2 6 Nordeste 22 Este 0 -- -- 31
2018-12-08 05:00:00 16.7 7 Nordeste 22 Nordeste 0 -- -- 30
2018-12-08 04:00:00 17.4 9 Este 27 Nordeste 0 -- -- 28
2018-12-08 03:00:00 17.3 9 Nordeste 27 Este 0 -- -- 27
2018-12-08 02:00:00 17.3 7 Este 29 Sudeste 0 -- -- 29
2018-12-08 01:00:00 17.5 6 Este 33 Sur 0 -- -- 30
2018-12-08 00:00:00 17.6 12 Sudeste 42 Sudeste 0 -- -- 31
2018-12-07 23:00:00 17.6 10 Nordeste 31 Nordeste 0 -- -- 31
2018-12-07 22:00:00 17.2 6 Oeste 20 Nordeste 0 -- -- 30
2018-12-07 21:00:00 16.2 5 Norte 24 Norte 0 -- -- 37
2018-12-07 20:00:00 16.2 5 Este 24 Nordeste 0 -- -- 37
2018-12-07 19:00:00 15 4 Norte 23 Nordeste 0 -- -- 40
2018-12-07 18:00:00 16.4 6 Norte 15 Nordeste 0 -- -- 36
2018-12-07 17:00:00 18 7 Este 17 Este 0 -- -- 34
2018-12-07 16:00:00 18.9 7 Este 22 Norte 0 -- -- 32
2018-12-07 15:00:00 19 8 Este 19 Este 0 -- -- 33
2018-12-07 14:00:00 19.2 9 Este 24 Sudeste 0 -- -- 35
2018-12-07 13:00:00 19.3 10 Este 24 Nordeste 0 -- -- 35
2018-12-07 12:00:00 18.2 8 Este 22 Este 0 -- -- 39
2018-12-07 11:00:00 17.6 6 Este 20 Nordeste 0 -- -- 39
2018-12-07 10:00:00 18 7 Nordeste 26 Sudoeste 0 -- -- 36
2018-12-07 09:00:00 16.6 9 Nordeste 25 Nordeste 0 -- -- 36
2018-12-07 08:00:00 16.7 8 Nordeste 29 Este 0 -- -- 33
2018-12-07 07:00:00 17.2 10 Este 33 Este 0 -- -- 30
2018-12-07 06:00:00 17.7 13 Este 40 Sudeste 0 -- -- 27
2018-12-07 05:00:00 17.8 12 Sudeste 41 Sudeste 0 -- -- 28
2018-12-07 04:00:00 18.1 16 Sudeste 46 Sudeste 0 -- -- 26
2018-12-07 03:00:00 17.8 14 Sudeste 53 Sudeste 0 -- -- 29
2018-12-07 02:00:00 17.8 9 Sudeste 39 Este 0 -- -- 29
2018-12-07 01:00:00 17.5 7 Sur 28 Sur 0 -- -- 27
2018-12-07 00:00:00 17.3 7 Este 28 Este 0 -- -- 29
2018-12-06 23:00:00 17.1 5 Noroeste 26 Norte 0 -- -- 28
2018-12-06 22:00:00 16.8 6 Oeste 21 Noroeste 0 -- -- 29
2018-12-06 21:00:00 16.3 8 Oeste 23 Norte 0 -- -- 32
2018-12-06 20:00:00 15.7 9 Nordeste 22 Nordeste 0 -- -- 39
2018-12-06 19:00:00 15.3 7 Norte 18 Norte 0 -- -- 44
2018-12-06 18:00:00 15.2 6 Norte 19 Norte 0 -- -- 46
2018-12-06 17:00:00 16.4 6 Nordeste 13 Nordeste 0 -- -- 51
2018-12-06 16:00:00 18.5 6 Este 22 Este 0 -- -- 34
2018-12-06 15:00:00 17.5 6 Este 20 Este 0 -- -- 46
2018-12-06 14:00:00 17.3 6 Este 21 Nordeste 0 -- -- 41
2018-12-06 13:00:00 16.5 6 Norte 26 Sudeste 0 -- -- 52
2018-12-06 12:00:00 15.9 10 Este 24 Este 0 -- -- 50
2018-12-06 11:00:00 15.8 10 Este 21 Este 0 -- -- 54
2018-12-06 10:00:00 15 9 Este 26 Este 0 -- -- 61
2018-12-06 09:00:00 14.6 9 Sudeste 42 Este 0 -- -- 69
2018-12-06 08:00:00 14.4 17 Este 47 Sudeste 0 -- -- 67
2018-12-06 07:00:00 14.6 15 Este 41 Este 0 -- -- 63
2018-12-06 06:00:00 15.1 21 Sudeste 44 Sudeste 0 -- -- 52
2018-12-06 05:00:00 15.6 18 Este 53 Este 0 -- -- 45
2018-12-06 04:00:00 15.6 17 Sudeste 51 Sudeste 0 -- -- 42
2018-12-06 03:00:00 15.7 14 Este 40 Este 0 -- -- 36
2018-12-06 02:00:00 15.1 14 Este 38 Este 0 -- -- 40
2018-12-06 01:00:00 15.2 15 Este 43 Sudeste 0 -- -- 44
2018-12-06 00:00:00 14.9 13 Este 37 Sudeste 0 -- -- 50
2018-12-05 23:00:00 14.5 11 Este 28 Sudeste 0 -- -- 51
2018-12-05 22:00:00 13.6 6 Nordeste 18 Nordeste 0 -- -- 51
2018-12-05 21:00:00 14.3 6 Nordeste 23 Sudeste 0 -- -- 46
2018-12-05 20:00:00 15.8 10 Este 29 Este 0 -- -- 34
2018-12-05 19:00:00 15.5 8 Este 26 Sudeste 0 -- -- 36
2018-12-05 18:00:00 16 10 Este 32 Sudeste 0 -- -- 37
2018-12-05 17:00:00 16.8 10 Este 29 Este 0 -- -- 40
2018-12-05 16:00:00 16.4 8 Nordeste 26 Este 0 -- -- 51
2018-12-05 15:00:00 16.5 10 Este 22 Nordeste 0 -- -- 62
2018-12-05 14:00:00 16.3 9 Este 27 Este 0 -- -- 73
2018-12-05 13:00:00 15.8 13 Este 29 Este 0 -- -- 78
2018-12-05 12:00:00 16 14 Este 33 Sudeste 0 -- -- 77
2018-12-05 11:00:00 16 13 Este 31 Este 0 -- -- 78
2018-12-05 10:00:00 14.8 14 Este 30 Sudeste 0 -- -- 72
2018-12-05 09:00:00 15.4 12 Este 26 Sudeste 0 -- -- 66
2018-12-05 08:00:00 14.4 9 Este 30 Este 0 -- -- 57
2018-12-05 07:00:00 14.8 9 Este 37 Sudeste 0 -- -- 44
2018-12-05 06:00:00 14.8 10 Este 26 Este 0 -- -- 37
2018-12-05 05:00:00 14.6 7 Este 21 Este 0 -- -- 33
2018-12-05 04:00:00 14.2 7 Este 19 Este 0 -- -- 37
2018-12-05 03:00:00 13 6 Este 17 Este 0 -- -- 36
2018-12-05 02:00:00 13.4 5 Este 16 Este 0 -- -- 32
2018-12-05 01:00:00 13.1 4 Este 14 Este 0 -- -- 33
2018-12-05 00:00:00 11.9 5 Este 14 Este 0 -- -- 43
2018-12-04 23:00:00 12.8 6 Este 18 Este 0 -- -- 40
2018-12-04 22:00:00 12.3 4 Nordeste 16 Nordeste 0 -- -- 48
2018-12-04 21:00:00 12.8 4 Nordeste 14 Sudeste 0 -- -- 46
2018-12-04 20:00:00 11.9 4 Nordeste 8 Nordeste 0 -- -- 51
2018-12-04 19:00:00 12.6 3 Nordeste 7 Este 0 -- -- 51
2018-12-04 18:00:00 14.9 3 Norte 14 Sudeste 0 -- -- 46
2018-12-04 17:00:00 17.9 6 Sur 18 Sur 0 -- -- 34
2018-12-04 16:00:00 18.8 10 Sur 19 Sur 0 -- -- 32
2018-12-04 15:00:00 19.9 11 Sur 20 Sur 0 -- -- 32
2018-12-04 14:00:00 20.5 12 Sur 22 Sur 0 -- -- 34
2018-12-04 13:00:00 20.1 11 Sur 21 Sur 0 -- -- 38
2018-12-04 12:00:00 19.5 10 Sudeste 21 Sudeste 0 -- -- 37
2018-12-04 11:00:00 18.7 11 Sudeste 27 Sudeste 0 -- -- 33
2018-12-04 10:00:00 18.1 9 Sudeste 24 Este 0 -- -- 31
2018-12-04 09:00:00 16.6 9 Sudeste 23 Sudeste 0 -- -- 32
2018-12-04 08:00:00 10.8 3 Nordeste 12 Este 0 -- -- 51
2018-12-04 07:00:00 11.4 3 Este 12 Sur 0 -- -- 51
2018-12-04 06:00:00 11.4 3 Sudoeste 11 Oeste 0 -- -- 49
2018-12-04 05:00:00 10.4 4 Noroeste 9 Norte 0 -- -- 51
2018-12-04 04:00:00 10.3 4 Norte 9 Este 0 -- -- 47
2018-12-04 03:00:00 10.7 3 Nordeste 13 Sudeste 0 -- -- 46
2018-12-04 02:00:00 10.2 4 Nordeste 12 Nordeste 0 -- -- 46
2018-12-04 01:00:00 9.6 4 Norte 9 Sudeste 0 -- -- 46
2018-12-04 00:00:00 9.7 5 Norte 8 Norte 0 -- -- 44
2018-12-03 23:00:00 9.4 6 Norte 9 Norte 0 -- -- 45
2018-12-03 22:00:00 9.5 6 Norte 11 Norte 0 -- -- 42
2018-12-03 21:00:00 9.8 7 Norte 9 Norte 0 -- -- 41
2018-12-03 20:00:00 10.7 7 Norte 10 Noroeste 0 -- -- 40
2018-12-03 19:00:00 11.7 6 Norte 8 Norte 0 -- -- 39
2018-12-03 18:00:00 15.2 6 Noroeste 11 Oeste 0 -- -- 38
2018-12-03 17:00:00 18.4 4 Sudoeste 14 Sur 0 -- -- 24
2018-12-03 16:00:00 19.6 5 Sudoeste 20 Sur 0 -- -- 23
2018-12-03 15:00:00 21 10 Sur 21 Sur 0 -- -- 22
2018-12-03 14:00:00 20.2 7 Sur 20 Sudeste 0 -- -- 28
2018-12-03 13:00:00 19.5 9 Sur 22 Sudeste 0 -- -- 31
2018-12-03 12:00:00 18.4 7 Sudeste 22 Sudeste 0 -- -- 38
2018-12-03 11:00:00 18.4 9 Sur 16 Sudeste 0 -- -- 37
2018-12-03 10:00:00 17.4 6 Sur 12 Sur 0 -- -- 47
2018-12-03 09:00:00 13.4 2 Nordeste 6 Norte 0 -- -- 58
2018-12-03 08:00:00 9.6 3 Norte 9 Oeste 0 -- -- 60
2018-12-03 07:00:00 9.1 4 Norte 10 Noroeste 0 -- -- 61
2018-12-03 06:00:00 8.8 4 Norte 9 Noroeste 0 -- -- 63
2018-12-03 05:00:00 8.8 5 Norte 8 Norte 0 -- -- 63
2018-12-03 04:00:00 8.7 6 Norte 8 Norte 0 -- -- 62
2018-12-03 03:00:00 8.6 6 Norte 9 Norte 0 -- -- 60
2018-12-03 02:00:00 8.5 8 Norte 10 Norte 0 -- -- 56
2018-12-03 01:00:00 8.5 8 Norte 9 Norte 0 -- -- 52
2018-12-03 00:00:00 8.7 7 Norte 10 Norte 0 -- -- 53
2018-12-02 23:00:00 8.5 7 Norte 9 Norte 0 -- -- 55
2018-12-02 22:00:00 8.4 4 Norte 9 Norte 0 -- -- 56
2018-12-02 21:00:00 8.5 6 Norte 9 Norte 0 -- -- 59
2018-12-02 20:00:00 8.5 5 Norte 10 Noroeste 0 -- -- 63
2018-12-02 19:00:00 9.2 5 Norte 9 Noroeste 0 -- -- 68
2018-12-02 18:00:00 13 4 Norte 15 Este 0 -- -- 95
2018-12-02 17:00:00 13.6 5 Nordeste 12 Este 0 -- -- 93
2018-12-02 16:00:00 14 5 Este 14 Nordeste 0 -- -- 92
2018-12-02 15:00:00 14.1 7 Este 15 Este 0 -- -- 92
2018-12-02 14:00:00 13.7 5 Este 14 Este 0 -- -- 95
2018-12-02 13:00:00 14.2 5 Este 13 Sudeste 0 -- -- 91
2018-12-02 12:00:00 14.2 7 Este 19 Sudeste 0 -- -- 88
2018-12-02 11:00:00 13.9 9 Este 19 Este 0 -- -- 89
2018-12-02 10:00:00 14.3 8 Este 16 Este 0 -- -- 85
2018-12-02 09:00:00 12.3 5 Nordeste 14 Norte 0 -- -- 95
2018-12-02 08:00:00 11.3 5 Nordeste 17 Nordeste 0 -- -- 95
2018-12-02 07:00:00 8.8 5 Nordeste 13 Nordeste 0 -- -- 89
2018-12-02 06:00:00 8.1 5 Norte 9 Norte 0 -- -- 67
2018-12-02 05:00:00 8.7 8 Norte 11 Norte 0 -- -- 60
2018-12-02 04:00:00 8.5 6 Norte 10 Norte 0 -- -- 67
2018-12-02 03:00:00 8.7 5 Norte 9 Norte 0 -- -- 73
2018-12-02 02:00:00 8.9 6 Norte 9 Noroeste 0 -- -- 72
2018-12-02 01:00:00 8.3 5 Noroeste 9 Norte 0 -- -- 72
2018-12-02 00:00:00 8.8 5 Noroeste 8 Norte 0 -- -- 86
2018-12-01 23:00:00 9.9 3 Norte 13 Este 0 -- -- 93
2018-12-01 22:00:00 12 7 Nordeste 17 Este 0 -- -- 92
2018-12-01 21:00:00 10.6 6 Nordeste 13 Nordeste 0 -- -- 91
2018-12-01 20:00:00 11.5 3 Norte 6 Noroeste 0 -- -- 85
2018-12-01 19:00:00 11.5 3 Norte 8 Nordeste 0 -- -- 86
2018-12-01 18:00:00 13.3 3 Este 10 Este 0 -- -- 92
2018-12-01 17:00:00 13.8 4 Sudeste 10 Sudeste 0 -- -- 93
2018-12-01 16:00:00 15 8 Sudeste 13 Sudeste 0 -- -- 87
2018-12-01 15:00:00 17.4 5 Sudeste 13 Sudeste 0 -- -- 75
2018-12-01 14:00:00 16.1 4 Este 15 Sudeste 0 -- -- 81
2018-12-01 13:00:00 17 8 Sudeste 15 Sudeste 0 -- -- 75
2018-12-01 12:00:00 14.4 5 Este 16 Este 0 -- -- 88
2018-12-01 11:00:00 14 4 Nordeste 14 Sudeste 0 -- -- 87
2018-12-01 10:00:00 15.6 6 Sudeste 13 Sudeste 0 -- -- 80
2018-12-01 09:00:00 12 2 Este 6 Norte 0 -- -- 78
2018-12-01 08:00:00 7.8 6 Norte 9 Norte 0 -- -- 63
2018-12-01 07:00:00 7.9 5 Norte 9 Norte 0 -- -- 69
2018-12-01 06:00:00 8.6 4 Norte 9 Norte 0 -- -- 68
2018-12-01 05:00:00 8.8 6 Norte 10 Norte 0 -- -- 56
2018-12-01 04:00:00 9.1 8 Norte 10 Norte 0 -- -- 55
2018-12-01 03:00:00 9.4 6 Norte 9 Norte 0 -- -- 56
2018-12-01 02:00:00 9.9 5 Norte 8 Norte 0 -- -- 52
2018-12-01 01:00:00 10.6 5 Norte 8 Norte 0 -- -- 48
2018-12-01 00:00:00 11 4 Norte 14 Noroeste 0 -- -- 57
2018-11-30 23:00:00 11.4 5 Norte 14 Noroeste 0 -- -- 56
2018-11-30 22:00:00 11.4 6 Norte 11 Norte 0 -- -- 58
2018-11-30 21:00:00 12.1 4 Norte 7 Norte 0 -- -- 54
2018-11-30 20:00:00 12.3 3 Nordeste 8 Norte 0 -- -- 51
2018-11-30 19:00:00 12.3 3 Noroeste 9 Noroeste 0 -- -- 58
2018-11-30 18:00:00 15.2 2 Noroeste 9 Sur 0 -- -- 76
2018-11-30 17:00:00 17.5 4 Sur 10 Sur 0 -- -- 80
2018-11-30 16:00:00 18.7 7 Sudeste 12 Sudeste 0 -- -- 61
2018-11-30 15:00:00 20 7 Sudeste 14 Sudeste 0 -- -- 46
2018-11-30 14:00:00 19.7 7 Sudeste 14 Sudeste 0 -- -- 66
2018-11-30 13:00:00 19.2 8 Sudeste 15 Sudeste 0 -- -- 68
2018-11-30 12:00:00 19.9 8 Sudeste 12 Sudeste 0 -- -- 60
2018-11-30 11:00:00 18.7 5 Sudeste 12 Sudeste 0 -- -- 50
2018-11-30 10:00:00 18.9 5 Sudeste 9 Sudeste 0 -- -- 46
2018-11-30 09:00:00 13.2 2 Norte 8 Norte 0 -- -- 70
2018-11-30 08:00:00 9.5 7 Norte 10 Norte 0 -- -- 65
2018-11-30 07:00:00 9.4 8 Norte 10 Norte 0 -- -- 67
2018-11-30 06:00:00 9.8 8 Norte 11 Norte 0 -- -- 66
2018-11-30 05:00:00 10.3 6 Norte 11 Norte 0 -- -- 68
2018-11-30 04:00:00 12.5 5 Norte 15 Norte 0 -- -- 57
2018-11-30 03:00:00 13.4 8 Norte 15 Norte 0 -- -- 52
2018-11-30 02:00:00 11.6 6 Norte 13 Norte 0 -- -- 61
2018-11-30 01:00:00 11.3 5 Norte 14 Norte 0 -- -- 64
2018-11-30 00:00:00 11.1 5 Norte 13 Nordeste 0 -- -- 65
2018-11-29 23:00:00 11.2 5 Norte 10 Norte 0 -- -- 66
2018-11-29 22:00:00 11.3 4 Norte 9 Norte 0 -- -- 68
2018-11-29 21:00:00 11.6 4 Norte 12 Nordeste 0 -- -- 68
2018-11-29 20:00:00 12 5 Norte 13 Nordeste 0 -- -- 66
2018-11-29 19:00:00 12.6 5 Norte 14 Norte 0 -- -- 63
2018-11-29 18:00:00 15.4 5 Norte 8 Sudeste 0 -- -- 72
2018-11-29 17:00:00 17 4 Sudeste 10 Sudeste 0 -- -- 67
2018-11-29 16:00:00 17.5 6 Sudeste 13 Sudeste 0 -- -- 70
2018-11-29 15:00:00 18.2 6 Este 13 Este 0 -- -- 63
2018-11-29 14:00:00 17.9 6 Este 17 Este 0 -- -- 59
2018-11-29 13:00:00 17.5 9 Sudeste 19 Sudeste 0 -- -- 75
2018-11-29 12:00:00 19 8 Este 14 Este 0 -- -- 47
2018-11-29 11:00:00 19.8 7 Sudeste 13 Sudeste 0 -- -- 36
2018-11-29 10:00:00 19.1 5 Sudeste 9 Sur 0 -- -- 41
2018-11-29 09:00:00 13.2 3 Noroeste 9 Norte 0 -- -- 77
2018-11-29 08:00:00 9.2 8 Norte 12 Norte 0 -- -- 77
2018-11-29 07:00:00 9.1 8 Norte 10 Norte 0 -- -- 77
2018-11-29 06:00:00 9.5 8 Norte 12 Norte 0 -- -- 79
2018-11-29 05:00:00 9.9 7 Norte 11 Norte 0 -- -- 74
2018-11-29 04:00:00 9.9 7 Norte 12 Norte 0 -- -- 73
2018-11-29 03:00:00 10.2 7 Norte 10 Norte 0 -- -- 69
2018-11-29 02:00:00 10.5 6 Norte 12 Norte 0 -- -- 67
2018-11-29 01:00:00 11.6 6 Norte 16 Norte 0 -- -- 61
2018-11-29 00:00:00 13.7 8 Nordeste 19 Nordeste 0 -- -- 52
2018-11-28 23:00:00 10.7 5 Norte 12 Nordeste 0 -- -- 63
2018-11-28 22:00:00 10.2 5 Norte 12 Norte 0 -- -- 59
2018-11-28 21:00:00 10 7 Norte 9 Nordeste 0 -- -- 54
2018-11-28 20:00:00 9.9 6 Norte 10 Norte 0 -- -- 51
2018-11-28 12:00:00 -- -- -- -- -- -- -- -- --
2018-11-28 11:00:00 16 5 Sudeste 13 Este 0 -- -- 83
2018-11-28 10:00:00 17 5 Este 10 Este 0 -- -- 54
2018-11-28 09:00:00 12 3 Norte 8 Norte 0 -- -- 95
2018-11-28 08:00:00 8.7 8 Norte 12 Norte 0 -- -- 98
2018-11-28 07:00:00 7.9 7 Norte 11 Norte 0 -- -- 98
2018-11-28 06:00:00 7.2 8 Norte 13 Norte 0 -- -- 98
2018-11-28 05:00:00 7.4 8 Norte 11 Norte 0 -- -- 100
2018-11-28 04:00:00 8.8 6 Norte 10 Norte 0 -- -- 100
2018-11-28 03:00:00 9.6 5 Norte 8 Norte 0 -- -- 100
2018-11-28 02:00:00 11.4 4 Norte 14 Este 0 -- -- 100
2018-11-28 01:00:00 12.8 4 Nordeste 16 Norte 0 -- -- 100
2018-11-28 00:00:00 13.3 6 Este 18 Sur 0.2 -- -- 100
2018-11-27 23:00:00 13.2 9 Este 28 Sudeste 0 -- -- 100
2018-11-27 22:00:00 12.8 4 Nordeste 22 Norte 0 -- -- 100
2018-11-27 21:00:00 10.9 5 Norte 13 Norte 0 -- -- 100
2018-11-27 20:00:00 11 4 Norte 11 Norte 0 -- -- 100
2018-11-27 19:00:00 11.7 4 Norte 10 Este 0 -- -- 100
2018-11-27 18:00:00 13.4 4 Este 15 Sudeste 0 -- -- 100
2018-11-27 17:00:00 13.8 3 Nordeste 12 Sudeste 0 -- -- 100
2018-11-27 16:00:00 13.9 4 Este 13 Sudeste 0 -- -- 100
2018-11-27 15:00:00 14.1 4 Sudeste 11 Sudeste 0.2 -- -- 100
2018-11-27 14:00:00 14.3 4 Sudeste 14 Sudeste 0.4 -- -- 100
2018-11-27 13:00:00 14.5 5 Este 9 Este 0 -- -- 100
2018-11-27 12:00:00 14.2 3 Este 14 Sudeste 0 -- -- 100
2018-11-27 11:00:00 14.2 7 Sudeste 14 Sudeste 0.4 -- -- 100
2018-11-27 10:00:00 13.5 4 Este 16 Sudeste 0.2 -- -- 100
2018-11-27 09:00:00 13.2 5 Este 12 Este 0.2 -- -- 100
2018-11-27 08:00:00 11.6 2 Nordeste 12 Norte 0 -- -- 100
2018-11-27 07:00:00 10.2 3 Norte 6 Nordeste 0 -- -- 100
2018-11-27 06:00:00 10.4 4 Norte 9 Nordeste 0 -- -- 100
2018-11-27 05:00:00 10.7 3 Norte 8 Este 0 -- -- 100
2018-11-27 04:00:00 11 4 Norte 10 Nordeste 0 -- -- 98
2018-11-27 03:00:00 12.3 4 Norte 16 Norte 0 -- -- 97
2018-11-27 02:00:00 13 4 Nordeste 13 Nordeste 0 -- -- 96
2018-11-27 01:00:00 12.7 4 Nordeste 10 Este 0 -- -- 100
2018-11-27 00:00:00 10.6 4 Norte 10 Noroeste 0 -- -- 100
2018-11-26 23:00:00 10.2 6 Noroeste 10 Noroeste 0 -- -- 99
2018-11-26 22:00:00 11 4 Norte 9 Noroeste 0 -- -- 97
2018-11-26 21:00:00 11 4 Norte 12 Nordeste 0 -- -- 99
2018-11-26 20:00:00 10.7 5 Norte 8 Norte 0 -- -- 97
2018-11-26 19:00:00 12.6 4 Norte 7 Noroeste 0 -- -- 97
2018-11-26 18:00:00 14.2 4 Sudeste 9 Sudeste 0 -- -- 100
2018-11-26 17:00:00 14.3 3 Sudeste 10 Sudeste 0 -- -- 99
2018-11-26 16:00:00 15 6 Sudeste 12 Este 0 -- -- 98
2018-11-26 15:00:00 14.6 4 Este 10 Sudeste 0 -- -- 100
2018-11-26 14:00:00 15.1 7 Sudeste 13 Sudeste 0 -- -- 98
2018-11-26 13:00:00 16.6 7 Sur 12 Sur 0 -- -- 91
2018-11-26 12:00:00 15.7 4 Norte 14 Sudoeste 0 -- -- 89
2018-11-26 11:00:00 14.9 4 Sur 9 Oeste 0 -- -- 97
2018-11-26 10:00:00 14.6 4 Sudeste 8 Sudeste 0 -- -- 97
2018-11-26 09:00:00 12.2 3 Norte 9 Norte 0 -- -- 100
2018-11-26 08:00:00 10.2 5 Norte 11 Norte 0 -- -- 99
2018-11-26 07:00:00 11.1 5 Norte 10 Norte 0 -- -- 98
2018-11-26 06:00:00 13.1 3 Norte 8 Norte 0 -- -- 100
2018-11-26 05:00:00 13.2 3 Norte 11 Nordeste 0 -- -- 100
2018-11-26 04:00:00 13.9 3 Nordeste 10 Nordeste 0 -- -- 100
2018-11-26 03:00:00 14.2 5 Nordeste 13 Este 0 -- -- 100
2018-11-26 02:00:00 14.2 3 Nordeste 10 Sudeste 0 -- -- 100
2018-11-26 01:00:00 14.2 5 Este 11 Este 0 -- -- 98
2018-11-26 00:00:00 13.9 4 Nordeste 13 Nordeste 0 -- -- 98
2018-11-25 23:00:00 13.1 6 Nordeste 20 Este 0 -- -- 94
2018-11-25 22:00:00 11.2 4 Norte 12 Nordeste 0 -- -- 95
2018-11-25 21:00:00 10.6 4 Norte 8 Norte 0 -- -- 96
2018-11-25 20:00:00 11.2 4 Noroeste 7 Noroeste 0 -- -- 97
2018-11-25 19:00:00 13.2 4 Norte 6 Norte 0 -- -- 97
2018-11-25 18:00:00 15.2 3 Norte 7 Sudeste 0 -- -- 100
2018-11-25 17:00:00 16 3 Sur 8 Sur 0 -- -- 100
2018-11-25 16:00:00 16.4 3 Este 9 Sudeste 0 -- -- 100
2018-11-25 15:00:00 17.1 4 Sudeste 10 Sudeste 0 -- -- 96
2018-11-25 14:00:00 17.2 4 Sudeste 13 Sudeste 0 -- -- 95
2018-11-25 13:00:00 16.9 6 Sudeste 12 Sudeste 0 -- -- 97
2018-11-25 12:00:00 17 4 Sudeste 11 Este 0 -- -- 95
2018-11-25 11:00:00 17 3 Este 11 Sudeste 0 -- -- 95
2018-11-25 10:00:00 19 5 Sudeste 10 Sur 0 -- -- 85
2018-11-25 09:00:00 16.8 3 Norte 12 Norte 0 -- -- 87
2018-11-25 08:00:00 13.7 8 Noroeste 17 Noroeste 0 -- -- 96
2018-11-25 07:00:00 13 9 Noroeste 17 Noroeste 0 -- -- 100
2018-11-25 06:00:00 12.7 3 Norte 13 Este 0 -- -- 96
2018-11-25 05:00:00 14.5 4 Nordeste 32 Noroeste 0 -- -- 95
2018-11-25 04:00:00 14.4 13 Noroeste 28 Noroeste 0 -- -- 96
2018-11-25 03:00:00 14 11 Norte 26 Norte 0 -- -- 99
2018-11-25 02:00:00 13.7 4 Oeste 10 Este 0 -- -- 99
2018-11-25 01:00:00 13.7 4 Sudeste 12 Sudeste 0 -- -- 97
2018-11-25 00:00:00 13.4 3 Sudoeste 15 Noroeste 0 -- -- 96
2018-11-24 23:00:00 13.3 3 Oeste 12 Sudeste 0 -- -- 96
2018-11-24 22:00:00 13.4 5 Sudoeste 21 Sudoeste 0 -- -- 95
2018-11-24 21:00:00 13.4 6 Sudoeste 29 Norte 0 -- -- 96
2018-11-24 20:00:00 13.2 10 Noroeste 26 Noroeste 0 -- -- 95
2018-11-24 19:00:00 13 3 Noroeste 13 Este 0 -- -- 92
2018-11-24 18:00:00 14.5 4 Sudeste 13 Sudeste 0 -- -- 87
2018-11-24 17:00:00 14.6 4 Sur 9 Sur 0 -- -- 83
2018-11-24 16:00:00 15.2 6 Sur 13 Sur 0 -- -- 79
2018-11-24 15:00:00 16.1 7 Sudeste 23 Sudeste 0 -- -- 74
2018-11-24 14:00:00 16 9 Sudeste 15 Sudeste 0 -- -- 74
2018-11-24 13:00:00 15.6 7 Sur 15 Sudeste 0 -- -- 73
2018-11-24 12:00:00 14.8 8 Sudeste 14 Sudeste 0 -- -- 76
2018-11-24 11:00:00 14 7 Sudeste 17 Sudeste 0 -- -- 79
2018-11-24 10:00:00 13.8 6 Sudeste 13 Sudeste 0 -- -- 77
2018-11-24 09:00:00 11.4 3 Oeste 13 Oeste 0 -- -- 74
2018-11-24 08:00:00 8.4 6 Oeste 13 Norte 0 -- -- 91
2018-11-24 07:00:00 8.2 6 Noroeste 24 Noroeste 0 -- -- 90
2018-11-24 06:00:00 7.5 3 Noroeste 21 Noroeste 0 -- -- 95
2018-11-24 05:00:00 7.9 6 Noroeste 20 Noroeste 0 -- -- 95
2018-11-24 04:00:00 6.8 5 Norte 10 Oeste 0 -- -- 98
2018-11-24 03:00:00 6.6 5 Noroeste 12 Noroeste 0 -- -- 96
2018-11-24 02:00:00 6.9 7 Noroeste 11 Oeste 0 -- -- 94
2018-11-24 01:00:00 6.6 6 Noroeste 11 Noroeste 0 -- -- 91
2018-11-24 00:00:00 8.8 5 Norte 26 Noroeste 0 -- -- 83
2018-11-23 23:00:00 9.7 10 Noroeste 24 Noroeste 0 -- -- 88
2018-11-23 22:00:00 9.6 8 Norte 21 Norte 0 -- -- 89
2018-11-23 21:00:00 9.7 9 Noroeste 28 Noroeste 0 -- -- 89
2018-11-23 20:00:00 9.6 9 Noroeste 26 Norte 0 -- -- 88
2018-11-23 19:00:00 9.8 10 Noroeste 28 Norte 0 -- -- 85
2018-11-23 18:00:00 10.9 4 Este 23 Norte 0 -- -- 85
2018-11-23 17:00:00 11.6 6 Nordeste 22 Sudeste 0 -- -- 80
2018-11-23 16:00:00 12.7 6 Norte 23 Noroeste 0 -- -- 73
2018-11-23 15:00:00 13.2 6 Noroeste 17 Noroeste 0 -- -- 70
2018-11-23 14:00:00 12.8 8 Noroeste 29 Oeste 0 -- -- 74
2018-11-23 13:00:00 13.1 11 Nordeste 32 Norte 0 -- -- 76
2018-11-23 12:00:00 13 10 Norte 33 Norte 0 -- -- 75
2018-11-23 11:00:00 11.6 9 Norte 32 Este 0 -- -- 84
2018-11-23 10:00:00 10.9 8 Nordeste 32 Norte 0 -- -- 80
2018-11-23 09:00:00 10.7 6 Norte 35 Norte 0 -- -- 87
2018-11-23 08:00:00 9 14 Noroeste 33 Oeste 0.6 -- -- 96
2018-11-23 07:00:00 8.9 14 Norte 41 Norte 0 -- -- 91
2018-11-23 06:00:00 8.7 14 Norte 41 Norte 0 -- -- 93
2018-11-23 05:00:00 8.4 18 Noroeste 39 Noroeste 1.6 -- -- 94
2018-11-23 04:00:00 8.4 18 Noroeste 49 Noroeste 0 -- -- 91
2018-11-23 03:00:00 8.5 18 Noroeste 47 Noroeste 1.6 -- -- 95
2018-11-23 02:00:00 8.3 16 Noroeste 49 Noroeste 0 -- -- 93
2018-11-23 01:00:00 8.2 19 Noroeste 42 Noroeste 2.8 -- -- 96
2018-11-23 00:00:00 9 15 Noroeste 45 Noroeste 0 -- -- 93
2018-11-22 23:00:00 8.7 15 Noroeste 42 Noroeste 0.2 -- -- 95
2018-11-22 22:00:00 7.7 18 Noroeste 45 Noroeste 3 -- -- 88
2018-11-22 21:00:00 8.2 22 Noroeste 42 Noroeste 0.6 -- -- 95
2018-11-22 20:00:00 9.5 12 Noroeste 40 Noroeste 0.2 -- -- 94
2018-11-22 19:00:00 9.2 17 Noroeste 43 Noroeste 1 -- -- 94
2018-11-22 18:00:00 9.7 17 Noroeste 36 Noroeste 0.4 -- -- 95
2018-11-22 17:00:00 10 10 Noroeste 37 Noroeste 0.6 -- -- 96
2018-11-22 16:00:00 10 17 Noroeste 40 Noroeste 6 -- -- 96
2018-11-22 15:00:00 11.9 17 Noroeste 41 Norte 0.4 -- -- 89
2018-11-22 14:00:00 13.6 18 Noroeste 47 Noroeste 0 -- -- 78
2018-11-22 13:00:00 13.3 13 Noroeste 42 Noroeste 0 -- -- 84
2018-11-22 12:00:00 11.7 18 Noroeste 41 Noroeste 4.4 -- -- 93
2018-11-22 11:00:00 12.2 14 Noroeste 35 Noroeste 2.8 -- -- 98
2018-11-22 10:00:00 11.1 15 Noroeste 36 Noroeste 3.8 -- -- 98
2018-11-22 09:00:00 11.3 14 Noroeste 33 Noroeste 0 -- -- 87
2018-11-22 08:00:00 10.5 10 Noroeste 27 Noroeste 0 -- -- 90
2018-11-22 07:00:00 10.7 9 Noroeste 24 Noroeste 0 -- -- 95
2018-11-22 06:00:00 11.2 3 Nordeste 17 Oeste 0.2 -- -- 98
2018-11-22 05:00:00 11.1 7 Oeste 22 Sudoeste 0 -- -- 95
2018-11-22 04:00:00 11 4 Norte 12 Sudeste 0 -- -- 97
2018-11-22 03:00:00 11.1 4 Nordeste 14 Oeste 0 -- -- 96
2018-11-22 02:00:00 11.1 4 Oeste 16 Oeste 0 -- -- 96
2018-11-22 01:00:00 11 6 Noroeste 14 Este 0.2 -- -- 96
2018-11-22 00:00:00 11.5 3 Oeste 22 Noroeste 0 -- -- 96
2018-11-21 23:00:00 11.4 6 Noroeste 18 Noroeste 0 -- -- 93
2018-11-21 22:00:00 11.5 5 Oeste 10 Este 0 -- -- 98
2018-11-21 21:00:00 11.4 6 Sur 26 Norte 0 -- -- 97
2018-11-21 20:00:00 12.2 5 Noroeste 13 Oeste 0 -- -- 98
2018-11-21 19:00:00 12.4 4 Noroeste 7 Noroeste 0 -- -- 98
2018-11-21 18:00:00 13.7 0 Calma 4 Norte 0.8 -- -- 97
2018-11-21 17:00:00 13.6 3 Este 12 Noroeste 1.8 -- -- 97
2018-11-21 16:00:00 14.5 0 Calma 26 Oeste 0.2 -- -- 91
2018-11-21 15:00:00 14.7 10 Oeste 31 Oeste 0 -- -- 87
2018-11-21 14:00:00 15.8 14 Oeste 31 Oeste 0 -- -- 80
2018-11-21 13:00:00 16.5 8 Oeste 32 Oeste 0 -- -- 79
2018-11-21 12:00:00 15.3 16 Oeste 30 Oeste 0 -- -- 78
2018-11-21 11:00:00 15.2 19 Oeste 35 Oeste 0 -- -- 80
2018-11-21 10:00:00 14.5 15 Oeste 29 Oeste 0 -- -- 79
2018-11-21 09:00:00 13.6 12 Oeste 25 Oeste 0 -- -- 84
2018-11-21 08:00:00 11.9 10 Noroeste 22 Oeste 0 -- -- 85
2018-11-21 07:00:00 11.6 10 Noroeste 22 Noroeste 0 -- -- 91
2018-11-21 06:00:00 11.4 10 Noroeste 22 Oeste 0 -- -- 88
2018-11-21 05:00:00 11.2 10 Noroeste 23 Oeste 0 -- -- 87
2018-11-21 04:00:00 10.5 8 Noroeste 17 Noroeste 0 -- -- 89
2018-11-21 03:00:00 9 6 Noroeste 11 Oeste 0 -- -- 95
2018-11-21 02:00:00 8.4 6 Noroeste 9 Noroeste 0 -- -- 96
2018-11-21 01:00:00 8.2 7 Noroeste 9 Norte 0 -- -- 97
2018-11-21 00:00:00 8.4 6 Noroeste 9 Noroeste 0 -- -- 96
2018-11-20 23:00:00 8.7 5 Noroeste 10 Noroeste 0 -- -- 95
2018-11-20 22:00:00 9 6 Norte 8 Norte 0 -- -- 95
2018-11-20 21:00:00 10.4 6 Noroeste 12 Oeste 0 -- -- 95
2018-11-20 20:00:00 11.2 4 Noroeste 13 Oeste 0 -- -- 92
2018-11-20 19:00:00 12.1 6 Noroeste 15 Noroeste 0 -- -- 91
2018-11-20 18:00:00 14 3 Sur 9 Este 0 -- -- 95
2018-11-20 17:00:00 14.3 4 Este 8 Este 0 -- -- 93
2018-11-20 16:00:00 14.9 4 Oeste 11 Este 0 -- -- 81
2018-11-20 15:00:00 14.9 5 Sur 14 Sur 0 -- -- 88
2018-11-20 14:00:00 14.9 7 Sur 14 Sur 0 -- -- 95
2018-11-20 13:00:00 14.4 9 Este 21 Sudeste 0 -- -- 95
2018-11-20 12:00:00 14.8 8 Sudeste 13 Sur 0 -- -- 91
2018-11-20 11:00:00 14.7 7 Sudeste 13 Sur 0 -- -- 91
2018-11-20 10:00:00 14.7 8 Sur 12 Sudeste 0 -- -- 91
2018-11-20 09:00:00 12.7 5 Sudeste 8 Oeste 0 -- -- 92
2018-11-20 08:00:00 8.9 4 Norte 8 Noroeste 0 -- -- 100
2018-11-20 07:00:00 8.5 4 Norte 7 Noroeste 0 -- -- 100
2018-11-20 06:00:00 8.6 3 Nordeste 7 Norte 0 -- -- 100
2018-11-20 05:00:00 9.2 3 Norte 9 Oeste 0 -- -- 100
2018-11-20 04:00:00 9.7 3 Noroeste 16 Noroeste 0 -- -- 99
2018-11-20 03:00:00 9.6 7 Norte 16 Norte 0 -- -- 98
2018-11-20 02:00:00 10.4 3 Norte 15 Este 0 -- -- 94
2018-11-20 01:00:00 11.7 7 Nordeste 24 Norte 0 -- -- 93
2018-11-20 00:00:00 11.5 6 Este 19 Norte 0 -- -- 90
2018-11-19 23:00:00 11.6 6 Norte 27 Noroeste 0 -- -- 96
2018-11-19 22:00:00 11.3 9 Norte 22 Noroeste 0 -- -- 96
2018-11-19 21:00:00 11.8 4 Noroeste 31 Norte 0.6 -- -- 98
2018-11-19 20:00:00 12 5 Norte 22 Norte 0.2 -- -- 96
2018-11-19 19:00:00 12 9 Nordeste 27 Este 0 -- -- 95
2018-11-19 18:00:00 12.1 5 Norte 24 Noroeste 0 -- -- 86
2018-11-19 17:00:00 12.7 10 Nordeste 30 Nordeste 0 -- -- 86
2018-11-19 16:00:00 13.2 10 Este 23 Este 0 -- -- 81
2018-11-19 15:00:00 13.5 8 Este 30 Noroeste 0 -- -- 84
2018-11-19 14:00:00 13.1 9 Este 29 Nordeste 0 -- -- 84
2018-11-19 13:00:00 12.8 7 Este 31 Oeste 0 -- -- 85
2018-11-19 12:00:00 12.7 7 Oeste 28 Noroeste 0 -- -- 88
2018-11-19 11:00:00 12.1 5 Sudeste 27 Nordeste 0 -- -- 95
2018-11-19 10:00:00 11 6 Sur 22 Norte 1.2 -- -- 97
2018-11-19 09:00:00 11 5 Norte 34 Este 0.2 -- -- 97
2018-11-19 08:00:00 10.8 6 Nordeste 27 Noroeste 0 -- -- 95
2018-11-19 07:00:00 10.5 8 Norte 35 Norte 0 -- -- 95
2018-11-19 06:00:00 10.7 9 Norte 29 Norte 0.8 -- -- 98
2018-11-19 05:00:00 10.7 6 Norte 25 Noroeste 1 -- -- 97
2018-11-19 04:00:00 10.7 4 Noroeste 23 Norte 0 -- -- 91
2018-11-19 03:00:00 10.9 7 Norte 22 Norte 0 -- -- 91
2018-11-19 02:00:00 10.7 6 Noroeste 34 Oeste 0 -- -- 93
2018-11-19 01:00:00 10.7 13 Noroeste 30 Oeste 0 -- -- 90
2018-11-19 00:00:00 10.4 8 Noroeste 30 Noroeste 0 -- -- 95
2018-11-18 23:00:00 10.4 12 Oeste 30 Oeste 0 -- -- 96
2018-11-18 22:00:00 10.2 12 Noroeste 37 Noroeste 1.6 -- -- 98
2018-11-18 21:00:00 10.8 11 Noroeste 41 Noroeste 0.4 -- -- 96
2018-11-18 20:00:00 10.8 8 Oeste 31 Noroeste 0.2 -- -- 95
2018-11-18 19:00:00 10.8 12 Noroeste 35 Oeste 0.2 -- -- 96
2018-11-18 18:00:00 11 16 Oeste 32 Oeste 0 -- -- 91
2018-11-18 17:00:00 11.4 13 Oeste 27 Noroeste 0.6 -- -- 93
2018-11-18 16:00:00 12.4 13 Noroeste 35 Oeste 0 -- -- 88
2018-11-18 15:00:00 12.4 15 Noroeste 37 Noroeste 0.4 -- -- 89
2018-11-18 14:00:00 13.9 14 Noroeste 38 Noroeste 0 -- -- 86
2018-11-18 13:00:00 13.8 14 Noroeste 32 Noroeste 0 -- -- 80
2018-11-18 12:00:00 14.6 11 Noroeste 33 Noroeste 0 -- -- 74
2018-11-18 11:00:00 12.5 14 Noroeste 39 Noroeste 0.6 -- -- 86
2018-11-18 10:00:00 12.5 7 Noroeste 20 Oeste 0 -- -- 84
2018-11-18 09:00:00 12.5 5 Sur 26 Oeste 0 -- -- 80
2018-11-18 08:00:00 10.6 7 Oeste 29 Noroeste 0.6 -- -- 95
2018-11-18 07:00:00 11 7 Oeste 28 Oeste 0.4 -- -- 93
2018-11-18 06:00:00 11.1 4 Este 16 Este 0.2 -- -- 89
2018-11-18 05:00:00 11.5 9 Noroeste 26 Noroeste 0 -- -- 87
2018-11-18 04:00:00 11.5 5 Noroeste 23 Nordeste 0 -- -- 92
2018-11-18 03:00:00 11.7 7 Sur 30 Oeste 0 -- -- 89
2018-11-18 02:00:00 11.7 8 Oeste 21 Noroeste 0 -- -- 87
2018-11-18 01:00:00 11.8 7 Oeste 30 Oeste 0 -- -- 84
2018-11-18 00:00:00 11.9 7 Oeste 28 Noroeste 0 -- -- 89
2018-11-17 23:00:00 11.9 12 Noroeste 33 Oeste 0 -- -- 88
2018-11-17 22:00:00 12.1 11 Noroeste 30 Oeste 0 -- -- 90
2018-11-17 21:00:00 12.2 6 Norte 41 Noroeste 0 -- -- 90
2018-11-17 20:00:00 12 19 Noroeste 53 Noroeste 0 -- -- 90
2018-11-17 19:00:00 12.5 23 Noroeste 54 Noroeste 0 -- -- 92
2018-11-17 18:00:00 12.9 21 Noroeste 53 Noroeste 0 -- -- 94
2018-11-17 17:00:00 13.6 24 Noroeste 54 Noroeste 0 -- -- 86
2018-11-17 16:00:00 14.4 19 Noroeste 50 Norte 0 -- -- 88
2018-11-17 15:00:00 14.4 19 Noroeste 49 Noroeste 0 -- -- 88
2018-11-17 14:00:00 13.2 16 Noroeste 43 Noroeste 1 -- -- 94
2018-11-17 13:00:00 15 15 Noroeste 35 Noroeste 4.6 -- -- 99
2018-11-17 12:00:00 15 15 Noroeste 41 Noroeste 2.4 -- -- 98
2018-11-17 11:00:00 14.8 18 Noroeste 48 Oeste 9.2 -- -- 98
2018-11-17 10:00:00 15.1 21 Oeste 51 Oeste 3 -- -- 100
2018-11-17 09:00:00 14.4 25 Oeste 49 Oeste 2.2 -- -- 100
2018-11-17 08:00:00 14.3 21 Oeste 53 Oeste 1 -- -- 99
2018-11-17 07:00:00 13.7 18 Oeste 47 Oeste 0.4 -- -- 99
2018-11-17 06:00:00 13.8 16 Oeste 40 Oeste 1.2 -- -- 100
2018-11-17 05:00:00 13.2 19 Oeste 39 Oeste 0.2 -- -- 97
2018-11-17 04:00:00 13.2 13 Oeste 34 Oeste 0.8 -- -- 95
2018-11-17 03:00:00 13.2 16 Oeste 37 Oeste 0.4 -- -- 96
2018-11-17 02:00:00 12.8 15 Oeste 33 Oeste 0.4 -- -- 97
2018-11-17 01:00:00 12.6 12 Oeste 25 Oeste 0 -- -- 92
2018-11-17 00:00:00 11.4 4 Noroeste 23 Noroeste 0 -- -- 90
2018-11-16 23:00:00 9.4 3 Oeste 16 Oeste 0 -- -- 93
2018-11-16 22:00:00 9.5 3 Nordeste 12 Sur 0 -- -- 94
2018-11-16 21:00:00 9.5 4 Norte 11 Este 0 -- -- 91
2018-11-16 20:00:00 10.5 3 Norte 15 Noroeste 0 -- -- 90
2018-11-16 19:00:00 11.1 3 Norte 15 Noroeste 0 -- -- 87
2018-11-16 18:00:00 12.6 6 Noroeste 18 Noroeste 0 -- -- 80
2018-11-16 17:00:00 14 6 Noroeste 17 Sur 0 -- -- 79
2018-11-16 16:00:00 14.4 9 Sudeste 22 Norte 0 -- -- 81
2018-11-16 15:00:00 15.2 7 Noroeste 21 Oeste 0 -- -- 70
2018-11-16 14:00:00 15.3 8 Sur 27 Sudoeste 0 -- -- 71
2018-11-16 13:00:00 15.5 8 Sudoeste 19 Noroeste 0 -- -- 72
2018-11-16 12:00:00 15.4 8 Nordeste 21 Noroeste 0 -- -- 76
2018-11-16 11:00:00 14.3 6 Norte 17 Norte 0 -- -- 77
2018-11-16 10:00:00 13.2 2 Oeste 12 Oeste 0 -- -- 86
2018-11-16 09:00:00 11.8 6 Oeste 17 Oeste 0 -- -- 84
2018-11-16 08:00:00 9.5 9 Oeste 21 Oeste 0 -- -- 91
2018-11-16 07:00:00 9.4 4 Este 10 Sudeste 0 -- -- 89
2018-11-16 06:00:00 9.9 6 Sudeste 28 Norte 0 -- -- 89
2018-11-16 05:00:00 9.5 4 Nordeste 12 Este 0 -- -- 92
2018-11-16 04:00:00 9.6 3 Norte 13 Nordeste 0 -- -- 90
2018-11-16 03:00:00 10.3 5 Este 21 Sur 0 -- -- 88
2018-11-16 02:00:00 10.7 8 Norte 32 Noroeste 0 -- -- 87
2018-11-16 01:00:00 11 7 Noroeste 30 Oeste 0 -- -- 91
2018-11-16 00:00:00 10.7 7 Norte 27 Norte 0 -- -- 89
2018-11-15 23:00:00 10.7 8 Norte 27 Norte 0 -- -- 90
2018-11-15 22:00:00 10.8 8 Noroeste 28 Noroeste 0 -- -- 89
2018-11-15 21:00:00 10.9 9 Norte 32 Noroeste 0 -- -- 87
2018-11-15 20:00:00 10.7 10 Norte 33 Noroeste 0 -- -- 88
2018-11-15 19:00:00 11 12 Norte 36 Norte 0 -- -- 90
2018-11-15 18:00:00 11.7 13 Norte 37 Norte 0 -- -- 85
2018-11-15 17:00:00 12.9 13 Noroeste 33 Noroeste 0 -- -- 84
2018-11-15 16:00:00 13.5 12 Noroeste 29 Noroeste 0 -- -- 87
2018-11-15 15:00:00 15.9 7 Noroeste 28 Norte 0 -- -- 83
2018-11-15 14:00:00 15.3 12 Noroeste 32 Norte 0 -- -- 87
2018-11-15 13:00:00 14.4 11 Norte 37 Noroeste 0.4 -- -- 95
2018-11-15 12:00:00 13.4 10 Nordeste 32 Nordeste 1 -- -- 98
2018-11-15 11:00:00 13.8 6 Este 24 Oeste 0 -- -- 91
2018-11-15 10:00:00 14.3 8 Norte 33 Norte 0 -- -- 90
2018-11-15 09:00:00 12.1 6 Nordeste 31 Oeste 0 -- -- 95
2018-11-15 08:00:00 10.9 5 Este 28 Norte 0 -- -- 94
2018-11-15 07:00:00 9.5 2 Norte 18 Norte 0 -- -- 94
2018-11-15 06:00:00 11 10 Nordeste 26 Sudeste 0 -- -- 93
2018-11-15 05:00:00 10.3 5 Noroeste 25 Noroeste 0 -- -- 93
2018-11-15 04:00:00 9.8 4 Norte 30 Noroeste 0 -- -- 93
2018-11-15 03:00:00 6.9 6 Noroeste 12 Noroeste 0 -- -- 98
2018-11-15 02:00:00 7.4 5 Noroeste 12 Noroeste 0 -- -- 99
2018-11-15 01:00:00 7.4 6 Norte 10 Noroeste 0 -- -- 98
2018-11-15 00:00:00 8 6 Norte 13 Noroeste 0 -- -- 94
2018-11-14 23:00:00 10.2 5 Sur 15 Sudeste 0 -- -- 89
2018-11-14 22:00:00 10.4 10 Noroeste 24 Noroeste 0 -- -- 93
2018-11-14 21:00:00 10.2 9 Noroeste 22 Noroeste 0 -- -- 97
2018-11-14 20:00:00 10.2 4 Norte 18 Norte 0 -- -- 96
2018-11-14 19:00:00 10.9 9 Norte 22 Norte 0.4 -- -- 97
2018-11-14 18:00:00 11.7 3 Norte 22 Noroeste 0.2 -- -- 96
2018-11-14 17:00:00 12 7 Noroeste 22 Noroeste 0.4 -- -- 92
2018-11-14 16:00:00 14.3 7 Noroeste 26 Oeste 0 -- -- 75
2018-11-14 15:00:00 14.3 8 Noroeste 23 Oeste 0 -- -- 76
2018-11-14 14:00:00 13.8 4 Sur 14 Sudeste 0 -- -- 89
2018-11-14 13:00:00 13.9 6 Sudeste 14 Sur 0 -- -- 88
2018-11-14 12:00:00 14 8 Este 15 Este 0 -- -- 81
2018-11-14 11:00:00 13.4 5 Este 14 Este 0 -- -- 90
2018-11-14 10:00:00 12.4 4 Este 11 Nordeste 0 -- -- 88
2018-11-14 09:00:00 11.3 3 Norte 14 Norte 0 -- -- 95
2018-11-14 08:00:00 10.3 6 Norte 18 Norte 0 -- -- 97
2018-11-14 07:00:00 10.2 7 Norte 19 Norte 0.2 -- -- 99
2018-11-14 06:00:00 9.6 4 Nordeste 18 Norte 0 -- -- 99
2018-11-14 05:00:00 9.9 6 Norte 19 Nordeste 0.2 -- -- 95
2018-11-14 04:00:00 10.6 6 Nordeste 24 Nordeste 0.6 -- -- 95
2018-11-14 03:00:00 11 6 Nordeste 19 Nordeste 0.6 -- -- 97
2018-11-14 02:00:00 10.6 8 Norte 32 Este 0 -- -- 87
2018-11-14 01:00:00 10.3 7 Norte 20 Norte 0 -- -- 93
2018-11-14 00:00:00 11.2 5 Norte 35 Nordeste 0.4 -- -- 95
2018-11-13 23:00:00 11.5 7 Nordeste 24 Este 0.4 -- -- 95
2018-11-13 22:00:00 11.5 6 Nordeste 25 Nordeste 0 -- -- 94
2018-11-13 21:00:00 11.2 10 Norte 32 Norte 0 -- -- 89
2018-11-13 20:00:00 11 10 Norte 35 Norte 0 -- -- 89
2018-11-13 19:00:00 11.1 13 Norte 33 Norte 0 -- -- 89
2018-11-13 18:00:00 11.8 11 Norte 30 Norte 0 -- -- 86
2018-11-13 17:00:00 13.5 9 Norte 27 Noroeste 0 -- -- 77
2018-11-13 16:00:00 13.3 10 Nordeste 30 Norte 0 -- -- 80
2018-11-13 15:00:00 14.7 9 Nordeste 30 Noroeste 0 -- -- 77
2018-11-13 14:00:00 14.2 10 Nordeste 24 Norte 0 -- -- 81
2018-11-13 13:00:00 13.4 10 Nordeste 27 Nordeste 0 -- -- 84
2018-11-13 12:00:00 13.2 10 Nordeste 32 Norte 0 -- -- 84
2018-11-13 11:00:00 12.8 14 Nordeste 36 Norte 0 -- -- 88
2018-11-13 10:00:00 13.3 11 Nordeste 30 Norte 0 -- -- 80
2018-11-13 09:00:00 12.8 9 Nordeste 23 Nordeste 0 -- -- 85
2018-11-13 08:00:00 11.2 9 Norte 29 Norte 0 -- -- 88
2018-11-13 07:00:00 10.8 11 Nordeste 25 Nordeste 0 -- -- 90
2018-11-13 06:00:00 10.7 8 Norte 35 Norte 0 -- -- 91
2018-11-13 05:00:00 10.9 6 Norte 28 Nordeste 0.2 -- -- 95
2018-11-13 04:00:00 11.3 8 Nordeste 23 Nordeste 0.4 -- -- 97
2018-11-13 03:00:00 11.4 9 Nordeste 25 Nordeste 0 -- -- 92
2018-11-13 02:00:00 11.1 7 Norte 34 Norte 0 -- -- 94
2018-11-13 01:00:00 11 12 Norte 37 Norte 0 -- -- 87
2018-11-13 00:00:00 11.1 11 Nordeste 32 Nordeste 0 -- -- 87
2018-11-12 23:00:00 11.1 10 Norte 33 Nordeste 0 -- -- 86
2018-11-12 22:00:00 11.4 12 Nordeste 40 Norte 0 -- -- 87
2018-11-12 21:00:00 11.8 10 Nordeste 34 Norte 0 -- -- 89
2018-11-12 20:00:00 11.7 12 Nordeste 38 Norte 0 -- -- 88
2018-11-12 19:00:00 11.8 15 Norte 44 Noroeste 0 -- -- 77
2018-11-12 18:00:00 12.3 13 Nordeste 37 Este 0 -- -- 84
2018-11-12 17:00:00 13.5 9 Este 25 Norte 0 -- -- 87
2018-11-12 16:00:00 13.1 10 Este 31 Sudeste 0 -- -- 89
2018-11-12 15:00:00 13.2 7 Este 32 Sudeste 0 -- -- 93
2018-11-12 14:00:00 13.8 8 Nordeste 37 Norte 0 -- -- 90
2018-11-12 13:00:00 14.5 7 Norte 29 Nordeste 0 -- -- 88
2018-11-12 12:00:00 14.9 14 Noroeste 39 Noroeste 0 -- -- 84
2018-11-12 11:00:00 13.8 11 Norte 30 Noroeste 0.2 -- -- 91
2018-11-12 10:00:00 13 8 Nordeste 38 Noroeste 0.2 -- -- 92
2018-11-12 09:00:00 13.3 15 Noroeste 39 Noroeste 2 -- -- 98
2018-11-12 08:00:00 13.4 8 Norte 35 Noroeste 0.4 -- -- 98
2018-11-12 07:00:00 13.1 13 Noroeste 39 Noroeste 0.6 -- -- 99
2018-11-12 06:00:00 13.3 7 Sudoeste 23 Oeste 2.2 -- -- 100
2018-11-12 05:00:00 13.3 0 Calma 3 Oeste 1.8 -- -- 100
2018-11-12 04:00:00 13.1 0 Calma 7 Norte 0.4 -- -- 99
2018-11-12 03:00:00 12.9 4 Oeste 23 Noroeste 0 -- -- 97
2018-11-12 02:00:00 12.3 6 Noroeste 15 Norte 0 -- -- 97
2018-11-12 01:00:00 11.7 3 Norte 18 Nordeste 0 -- -- 94
2018-11-12 00:00:00 12.2 6 Nordeste 19 Nordeste 0 -- -- 96
2018-11-11 23:00:00 12.9 4 Nordeste 30 Norte 0 -- -- 92
2018-11-11 22:00:00 12.8 11 Norte 34 Noroeste 0 -- -- 92
2018-11-11 21:00:00 12.9 4 Sudeste 21 Sudeste 0 -- -- 93
2018-11-11 20:00:00 13.2 6 Este 24 Noroeste 0 -- -- 93
2018-11-11 19:00:00 13.1 5 Norte 27 Noroeste 0 -- -- 93
2018-11-11 18:00:00 13.5 6 Oeste 21 Oeste 0 -- -- 87
2018-11-11 17:00:00 15.8 10 Noroeste 21 Noroeste 0 -- -- 78
2018-11-11 16:00:00 16.3 9 Noroeste 22 Noroeste 0 -- -- 73
2018-11-11 15:00:00 16.3 6 Noroeste 23 Noroeste 0 -- -- 75
2018-11-11 14:00:00 16.3 6 Este 24 Noroeste 0 -- -- 75
2018-11-11 13:00:00 15.7 5 Este 21 Sudeste 0 -- -- 74
2018-11-11 12:00:00 15.4 6 Sudoeste 15 Sur 0 -- -- 77
2018-11-11 11:00:00 14.6 6 Norte 16 Norte 0 -- -- 81
2018-11-11 10:00:00 13.4 4 Nordeste 10 Sudeste 0 -- -- 88
2018-11-11 09:00:00 13 4 Sudeste 9 Sudeste 0 -- -- 89
2018-11-11 08:00:00 9.5 2 Norte 6 Noroeste 0 -- -- 99
2018-11-11 07:00:00 9.2 3 Noroeste 9 Noroeste 0 -- -- 97
2018-11-11 06:00:00 10.5 2 Este 18 Noroeste 0 -- -- 92
2018-11-11 05:00:00 10.7 3 Nordeste 21 Este 0 -- -- 94
2018-11-11 04:00:00 12.3 5 Nordeste 21 Este 0 -- -- 88
2018-11-11 03:00:00 12.7 7 Nordeste 21 Nordeste 0 -- -- 92
2018-11-11 02:00:00 12.4 4 Norte 19 Nordeste 0 -- -- 91
2018-11-11 01:00:00 12.3 8 Nordeste 24 Nordeste 0 -- -- 90
2018-11-11 00:00:00 11.8 6 Nordeste 19 Este 0 -- -- 94
2018-11-10 23:00:00 11.7 8 Nordeste 24 Norte 0 -- -- 89
2018-11-10 22:00:00 11.7 3 Nordeste 23 Este 0 -- -- 89
2018-11-10 21:00:00 12 8 Nordeste 27 Este 0 -- -- 88
2018-11-10 20:00:00 12.1 5 Norte 25 Este 0 -- -- 88
2018-11-10 19:00:00 12.8 8 Nordeste 19 Este 0 -- -- 92
2018-11-10 18:00:00 13.1 8 Nordeste 21 Norte 0 -- -- 92
2018-11-10 17:00:00 13.4 9 Norte 24 Norte 0 -- -- 93
2018-11-10 16:00:00 14.2 10 Nordeste 28 Norte 0 -- -- 88
2018-11-10 15:00:00 15.5 8 Norte 26 Nordeste 0 -- -- 79
2018-11-10 14:00:00 13.7 6 Sudeste 26 Norte 0 -- -- 89
2018-11-10 13:00:00 13.8 5 Oeste 26 Sudeste 0 -- -- 93
2018-11-10 12:00:00 14 9 Sudeste 27 Este 0 -- -- 92
2018-11-10 11:00:00 13.8 9 Este 23 Norte 0 -- -- 90
2018-11-10 10:00:00 14.3 7 Nordeste 31 Norte 0 -- -- 83
2018-11-10 09:00:00 13.7 8 Norte 28 Norte 0 -- -- 82
2018-11-10 08:00:00 11.9 8 Nordeste 26 Nordeste 0 -- -- 92
2018-11-10 07:00:00 10.7 5 Norte 17 Norte 0 -- -- 95
2018-11-10 06:00:00 9.9 5 Norte 17 Este 0 -- -- 96
2018-11-10 05:00:00 9.5 5 Norte 16 Norte 0 -- -- 96
2018-11-10 04:00:00 10.4 6 Norte 24 Norte 0 -- -- 94
2018-11-10 03:00:00 10.6 10 Norte 24 Norte 0 -- -- 93
2018-11-10 02:00:00 10.6 11 Norte 24 Norte 0 -- -- 86
2018-11-10 01:00:00 11.8 7 Norte 20 Este 0 -- -- 92
2018-11-10 00:00:00 12.5 6 Nordeste 21 Este 0 -- -- 93